Poe, Indiana
Current Conditions -  °F | °C
As of 6:54 AM on Friday 31 Oct 2014 (Local Time) from KFWA Reporting Station
Light Rain Light Rain  
Wind Chill:   Ceiling: 4200
Heat Index:   Visibility: 9mi
Dew Point:   Wind: 7mph
Humidity: 82%   Direction: 240°WSW
Pressure: 29.95"   Gusts: NA
Location:  40.9649°N, 85.1332°W
Report Text: KFWA 311054Z 24006KT 9SM -RA FEW032 BKN042 OVC060 06/03 A2995 RMK AO2 RAB27 SLP146 P0000 T00610033
Loading
Personal Weather Stations






























Interactive Weather Map
Tropical Storm Tracking
New forecast layout! Learn more

10-Day Weather Forecast

Advertisements
Track Severe Weather on mobile